Time,TemperatureF,DewpointF,PressureIn,WindDirection,WindDirectionDegrees,WindSpeedMPH,WindSpeedGustMPH,Humidity,HourlyPrecipIn,Conditions,Clouds,dailyrainin,SoftwareType,DateUTC
2013-12-18 00:22:00,16.0,12.0,29.97,WSW,238,0.0,4.0,85,0.00,,,0.00,,2013-12-18 05:22:00,
2013-12-18 00:42:00,15.0,11.0,29.96,WSW,238,0.0,2.0,84,0.00,,,0.00,,2013-12-18 05:42:00,
2013-12-18 00:53:00,15.0,11.0,29.95,SW,227,0.0,2.0,84,0.00,,,0.00,,2013-12-18 05:53:00,
2013-12-18 01:22:00,14.0,10.0,29.92,WNW,288,0.0,2.0,83,0.00,,,0.00,,2013-12-18 06:22:00,
2013-12-18 01:42:00,14.0,10.0,29.91,WNW,288,0.0,0.0,84,0.00,,,0.00,,2013-12-18 06:42:00,
2013-12-18 01:52:00,14.0,10.0,29.92,WNW,292,0.0,3.0,84,0.00,,,0.00,,2013-12-18 06:52:00,
2013-12-18 02:22:00,14.0,10.0,29.91,WNW,298,0.0,2.0,85,0.00,,,0.00,,2013-12-18 07:22:00,
2013-12-18 02:52:00,14.0,10.0,29.91,NW,316,0.0,2.0,85,0.00,,,0.00,,2013-12-18 07:52:00,
2013-12-18 03:22:00,15.0,12.0,29.91,West,265,0.0,3.0,86,0.00,,,0.00,,2013-12-18 08:22:00,
2013-12-18 03:42:00,16.0,13.0,29.88,North,5,0.0,2.0,87,0.00,,,0.00,,2013-12-18 08:42:00,
2013-12-18 03:52:00,17.0,14.0,29.88,NE,38,0.0,5.0,87,0.00,,,0.00,,2013-12-18 08:52:00,
2013-12-18 04:11:00,17.0,14.0,29.88,NW,323,0.0,4.0,87,0.00,,,0.00,,2013-12-18 09:11:00,
2013-12-18 04:22:00,18.0,15.0,29.88,NNE,29,0.0,4.0,88,0.00,,,0.00,,2013-12-18 09:22:00,
2013-12-18 04:43:00,18.0,15.0,29.88,NW,325,0.0,2.0,88,0.00,,,0.00,,2013-12-18 09:43:00,
2013-12-18 04:53:00,19.0,16.0,29.89,NW,325,0.0,2.0,88,0.00,,,0.00,,2013-12-18 09:53:00,
2013-12-18 05:23:00,20.0,17.0,29.89,NNE,25,0.0,2.0,88,0.00,,,0.00,,2013-12-18 10:23:00,
2013-12-18 05:42:00,21.0,18.0,29.91,North,355,1.0,4.0,89,0.00,,,0.00,,2013-12-18 10:42:00,
2013-12-18 05:52:00,21.0,18.0,29.91,North,360,0.0,2.0,89,0.00,,,0.00,,2013-12-18 10:52:00,
2013-12-18 06:23:00,22.0,19.0,29.91,NW,306,0.0,1.0,89,0.00,,,0.00,,2013-12-18 11:23:00,
2013-12-18 06:42:00,23.0,20.0,29.92,NW,306,0.0,1.0,89,0.00,,,0.00,,2013-12-18 11:42:00,
2013-12-18 06:53:00,23.0,20.0,29.92,NW,307,0.0,1.0,89,0.00,,,0.00,,2013-12-18 11:53:00,
2013-12-18 07:22:00,22.0,19.0,29.92,NW,307,0.0,1.0,88,0.00,,,0.00,,2013-12-18 12:22:00,
2013-12-18 07:42:00,22.0,19.0,29.91,NW,307,0.0,0.0,88,0.00,,,0.00,,2013-12-18 12:42:00,
2013-12-18 07:53:00,21.0,18.0,29.91,NW,307,0.0,0.0,88,0.00,,,0.00,,2013-12-18 12:53:00,
2013-12-18 08:22:00,21.0,18.0,29.92,NW,307,0.0,1.0,88,0.00,,,0.00,,2013-12-18 13:22:00,
2013-12-18 08:42:00,22.0,19.0,29.91,NW,307,0.0,1.0,87,0.00,,,0.00,,2013-12-18 13:42:00,
2013-12-18 08:52:00,23.0,20.0,29.92,NW,310,0.0,3.0,87,0.00,,,0.00,,2013-12-18 13:52:00,
2013-12-18 09:11:00,23.0,19.0,29.92,NNW,348,0.0,5.0,86,0.00,,,0.00,,2013-12-18 14:11:00,
2013-12-18 09:22:00,24.0,20.0,29.92,NW,326,1.0,6.0,84,0.00,,,0.00,,2013-12-18 14:22:00,
2013-12-18 09:42:00,26.0,22.0,29.92,NW,325,0.0,4.0,83,0.00,,,0.00,,2013-12-18 14:42:00,
2013-12-18 09:52:00,30.0,23.0,29.92,NW,309,1.0,4.0,75,0.00,,,0.00,,2013-12-18 14:52:00,
2013-12-18 12:23:00,35.0,21.0,29.91,WNW,302,2.0,15.0,57,0.11,,,0.16,,2013-12-18 17:23:00,
2013-12-18 12:42:00,35.0,20.0,29.91,WNW,292,4.0,11.0,53,0.11,,,0.19,,2013-12-18 17:42:00,
2013-12-18 12:52:00,34.0,19.0,29.91,NW,315,6.0,12.0,54,0.10,,,0.21,,2013-12-18 17:52:00,
2013-12-18 13:22:00,35.0,20.0,29.91,NW,314,3.0,16.0,54,0.10,,,0.26,,2013-12-18 18:22:00,
2013-12-18 13:42:00,36.0,21.0,29.92,NW,304,2.0,9.0,53,0.09,,,0.28,,2013-12-18 18:42:00,
2013-12-18 13:52:00,35.0,19.0,29.92,WNW,284,4.0,16.0,52,0.09,,,0.30,,2013-12-18 18:52:00,
2013-12-18 14:22:00,33.0,19.0,29.92,WNW,288,4.0,11.0,57,0.07,,,0.33,,2013-12-18 19:22:00,
2013-12-18 14:42:00,34.0,21.0,29.93,WNW,293,1.0,13.0,58,0.06,,,0.34,,2013-12-18 19:42:00,
2013-12-18 14:52:00,33.0,19.0,29.93,WSW,257,1.0,15.0,57,0.05,,,0.35,,2013-12-18 19:52:00,
2013-12-18 15:22:00,32.0,19.0,29.95,West,275,1.0,8.0,58,0.03,,,0.36,,2013-12-18 20:22:00,
2013-12-18 15:42:00,32.0,19.0,29.95,WSW,247,1.0,10.0,59,0.03,,,0.37,,2013-12-18 20:42:00,
2013-12-18 15:53:00,30.0,18.0,29.96,WNW,289,0.0,11.0,60,0.02,,,0.37,,2013-12-18 20:53:00,
2013-12-18 16:22:00,29.0,18.0,29.96,SW,217,1.0,8.0,64,0.01,,,0.37,,2013-12-18 21:22:00,
2013-12-18 16:43:00,28.0,18.0,29.97,WSW,246,0.0,6.0,65,0.00,,,0.37,,2013-12-18 21:43:00,
2013-12-18 16:53:00,27.0,17.0,29.98,WSW,246,4.0,7.0,66,0.00,,,0.37,,2013-12-18 21:53:00,
2013-12-18 17:13:00,27.0,18.0,29.98,West,269,2.0,8.0,67,0.00,,,0.37,,2013-12-18 22:13:00,
2013-12-18 17:23:00,27.0,18.0,29.99,SW,229,1.0,8.0,67,0.00,,,0.37,,2013-12-18 22:23:00,
2013-12-18 17:53:00,26.0,17.0,30.00,West,278,1.0,9.0,68,0.00,,,0.37,,2013-12-18 22:53:00,
2013-12-18 18:22:00,25.0,17.0,30.01,West,265,0.0,1.0,70,0.00,,,0.37,,2013-12-18 23:22:00,
2013-12-18 18:42:00,25.0,17.0,30.01,West,265,0.0,1.0,72,0.00,,,0.37,,2013-12-18 23:42:00,
2013-12-18 18:53:00,24.0,17.0,30.02,West,265,0.0,3.0,73,0.00,,,0.37,,2013-12-18 23:53:00,
2013-12-18 19:11:00,24.0,17.0,30.03,West,265,0.0,1.0,74,0.00,,,0.37,,2013-12-19 00:11:00,
2013-12-18 19:22:00,23.0,17.0,30.03,West,265,0.0,2.0,76,0.00,,,0.37,,2013-12-19 00:22:00,
2013-12-18 19:42:00,23.0,17.0,30.03,West,265,0.0,0.0,77,0.00,,,0.37,,2013-12-19 00:42:00,
2013-12-18 19:52:00,23.0,16.0,30.04,WSW,256,0.0,4.0,75,0.00,,,0.37,,2013-12-19 00:52:00,
2013-12-18 20:22:00,24.0,17.0,30.06,SW,236,0.0,5.0,73,0.00,,,0.37,,2013-12-19 01:22:00,
2013-12-18 20:52:00,24.0,16.0,30.06,SW,235,1.0,3.0,72,0.00,,,0.37,,2013-12-19 01:52:00,
2013-12-18 21:22:00,23.0,16.0,30.06,SW,236,0.0,1.0,74,0.00,,,0.37,,2013-12-19 02:22:00,
2013-12-18 22:22:00,23.0,17.0,30.07,WSW,240,0.0,6.0,76,0.00,,,0.37,,2013-12-19 03:22:00,
2013-12-18 22:43:00,24.0,17.0,30.07,SW,234,2.0,6.0,73,0.00,,,0.37,,2013-12-19 03:43:00,
2013-12-18 22:54:00,24.0,16.0,30.08,WSW,244,1.0,7.0,72,0.00,,,0.37,,2013-12-19 03:54:00,
2013-12-18 23:12:00,24.0,17.0,30.08,WSW,244,1.0,5.0,73,0.00,,,0.37,,2013-12-19 04:12:00,
2013-12-18 23:23:00,24.0,17.0,30.09,SW,233,1.0,4.0,73,0.00,,,0.37,,2013-12-19 04:23:00,
2013-12-18 23:43:00,24.0,17.0,30.08,SSW,199,1.0,6.0,73,0.00,,,0.37,,2013-12-19 04:43:00,
2013-12-18 23:53:00,23.0,16.0,30.08,SSW,200,0.0,4.0,74,0.00,,,0.37,,2013-12-19 04:53:00,